CYYRBGBW

Guest
Details From CYYR - Goose Bay
To BGBW - Narsarsuaq
Flight Number -
Tags Generated
Created
Modified
Stats Distance 674 nm / 1,248 km
Max Altitude 0 ft / 0 m
Waypoints 3
Social Downloads 3
Likes 0
Share VATSIM

Download

Looking for another format? Having issues loading an existing format? Contact us
Advertisement - Login to hide

Notes

Generated

Route

CYYR NS BGBW

ID Type Via Altitude Latitude Longitude Leg Dist Tot Dist Heading (true) Name
O CYYR APT - 0 ft / 0 m 53.33389˚ -60.43639˚ - 0 nm - -
NS NDB - 0 ft / 0 m 60.90000˚ -46.01667˚ 651 nm 651 nm 40° / 52° NARSAQ NDB
O BGBW APT - 0 ft / 0 m 61.15435˚ -45.43692˚ 22 nm 673 nm 48° / 48° -

Altitude Profile

Advertisement - Login to hide

Weather


0- 5 10 15 20 25 30 35+ Temperature / ° C

Clouds and Precipitation
Forecast for 2017-12-15 00:00 UTC. Updated 2 hours ago

Ground ~20,000 ft ~40,000 ft Winds

CYYR

Details ICAO CYYR (YYR)
Name Goose Bay
Region Canada
Timezone America/Goose_Bay (UTC-4.0)
Stats Elevation 160 ft / 49 m (AMSL)
Location 53.318820° -60.423890°
Runways 2
Magnetic Variation 20.963° W

METAR

CYYR 142300Z 23017G22KT 15SM BKN048 M09/M16 A2894 RMK SC6 SLP802

Decode

TAF

TAF CYYR 141734Z 1418/1518 22015G25KT P6SM FEW015 BKN080 FM141900 23020G37KT P6SM BKN030 TEMPO 1419/1503 3SM BLSN BKN015 FM150300 23018G30KT P6SM BKN030 BECMG 1504/1506 23018G28KT FM151300 23020G37KT 3SM -SHSN BLSN OVC030 RMK NXT FCST BY 150000Z

Decode

Departure Runways

ID Width Length Bearing (true) Bearing (mag) Surface Threshold Offset Overrun Length
08 209 ft / 64 m 11,055 ft / 3,369 m 54.70° 75.66° Asphalt 0 ft / 0 m 1,000 ft / 305 m
16 200 ft / 61 m 9,515 ft / 2,900 m 132.96° 153.92° Asphalt 0 ft / 0 m 0 ft / 0 m
26 209 ft / 64 m 11,055 ft / 3,369 m 234.73° 255.69° Asphalt 0 ft / 0 m 1,000 ft / 305 m
34 200 ft / 61 m 9,515 ft / 2,900 m 312.99° 333.95° Asphalt 0 ft / 0 m 500 ft / 152 m

BGBW

Details ICAO BGBW (UAK)
Name Narsarsuaq
Region Greenland
Timezone America/Godthab (UTC-3.0)
Stats Elevation 112 ft / 34 m (AMSL)
Location 61.160516° -45.425976°
Runways 1
Magnetic Variation 22.905° W

METAR

BGBW 142250Z AUTO 08029KT 9999NDV FEW065/// BKN085/// 06/M07 Q0996

Decode

TAF

Not found

Destination Runways

ID Width Length Bearing (true) Bearing (mag) Surface Threshold Offset Overrun Length
07 148 ft / 45 m 5,921 ft / 1,805 m 40.57° 63.48° Concrete 0 ft / 0 m 0 ft / 0 m
25 148 ft / 45 m 5,921 ft / 1,805 m 220.58° 243.49° Concrete 0 ft / 0 m 279 ft / 85 m

Popular Alternatives